Time;durP1;ratioP1;P1;durP2;ratioP2;P2;SDS_P1;SDS_P2;PMS_P1;PMS_P2;Temp;Humidity;BMP_temperature;BMP_pressure;BME280_temperature;BME280_humidity;BME280_pressure;Samples;Min_cycle;Max_cycle;Signal;HPM_P1;HPM_P2
2021/12/01 00:01:01;;;;;;;7.30;5.13;;;;;;;;;;4710052;29;32600;-67
2021/12/01 00:03:28;;;;;;;8.55;5.05;;;;;;;;;;4711709;29;32498;-67
2021/12/01 00:05:56;;;;;;;6.57;4.80;;;;;;;;;;4713186;30;32537;-68
2021/12/01 00:08:23;;;;;;;7.55;5.20;;;;;;;;;;4712625;30;32680;-70
2021/12/01 00:10:50;;;;;;;6.60;4.55;;;;;;;;;;4712658;30;32379;-69
2021/12/01 00:13:20;;;;;;;8.73;6.43;;;;;;;;;;4691495;30;32452;-69
2021/12/01 00:15:47;;;;;;;7.75;4.97;;;;;;;;;;4694152;30;32478;-70
2021/12/01 00:18:16;;;;;;;7.78;4.90;;;;;;;;;;4694256;30;33072;-70
2021/12/01 00:20:43;;;;;;;6.22;5.63;;;;;;;;;;4694974;30;32510;-68
2021/12/01 00:23:11;;;;;;;7.32;4.35;;;;;;;;;;4695179;30;32422;-69
2021/12/01 00:25:42;;;;;;;7.25;5.50;;;;;;;;;;4695143;30;32179;-68
2021/12/01 00:28:10;;;;;;;8.05;6.13;;;;;;;;;;4695570;30;32079;-69
2021/12/01 00:30:37;;;;;;;7.65;6.13;;;;;;;;;;4694649;30;32913;-69
2021/12/01 00:33:04;;;;;;;7.53;5.90;;;;;;;;;;4695178;30;32643;-67
2021/12/01 00:35:31;;;;;;;6.75;5.40;;;;;;;;;;4694889;30;32533;-66
2021/12/01 00:37:58;;;;;;;6.78;4.57;;;;;;;;;;4695347;30;32674;-67
2021/12/01 00:40:26;;;;;;;6.03;5.05;;;;;;;;;;4694840;30;32887;-68
2021/12/01 00:42:54;;;;;;;9.00;6.10;;;;;;;;;;4695331;30;32872;-68
2021/12/01 00:45:22;;;;;;;8.23;6.47;;;;;;;;;;4695071;30;32493;-67
2021/12/01 00:47:52;;;;;;;6.65;5.00;;;;;;;;;;4694498;30;32325;-69
2021/12/01 00:50:23;;;;;;;8.05;6.53;;;;;;;;;;4694672;30;32605;-69
2021/12/01 00:52:50;;;;;;;9.05;7.20;;;;;;;;;;4690547;30;34663;-69
2021/12/01 00:55:17;;;;;;;8.70;6.47;;;;;;;;;;4694496;30;32700;-69
2021/12/01 00:57:45;;;;;;;8.30;5.82;;;;;;;;;;4691292;30;32527;-69
2021/12/01 01:00:13;;;;;;;9.32;5.80;;;;;;;;;;4699246;30;32697;-70
2021/12/01 01:02:40;;;;;;;9.05;6.80;;;;;;;;;;4694974;30;33520;-71
2021/12/01 01:05:08;;;;;;;8.45;5.60;;;;;;;;;;4694697;30;32434;-70
2021/12/01 01:07:35;;;;;;;8.23;5.50;;;;;;;;;;4694692;30;32474;-69
2021/12/01 01:10:16;;;;;;;10.27;7.15;;;;;;;;;;4702963;30;32480;-68
2021/12/01 01:18:15;;;;;;;9.13;6.13;;;;;;;;;;4694483;30;32490;-68
2021/12/01 01:20:41;;;;;;;9.23;6.70;;;;;;;;;;4694522;30;32348;-68
2021/12/01 01:23:08;;;;;;;10.15;7.43;;;;;;;;;;4694449;30;32453;-69
2021/12/01 01:25:35;;;;;;;10.75;5.72;;;;;;;;;;4694480;30;33815;-68
2021/12/01 01:28:03;;;;;;;;;;;;;;;;;;4695209;30;32556;-69
2021/12/01 01:30:30;;;;;;;7.72;5.40;;;;;;;;;;4708347;30;32443;-68
2021/12/01 01:32:58;;;;;;;8.48;5.65;;;;;;;;;;4711910;29;32476;-69
2021/12/01 01:35:24;;;;;;;8.52;6.68;;;;;;;;;;4712203;30;33050;-69
2021/12/01 01:37:51;;;;;;;8.45;5.35;;;;;;;;;;4711953;30;33192;-70
2021/12/01 01:40:18;;;;;;;7.55;5.57;;;;;;;;;;4711522;30;32411;-69
2021/12/01 01:42:45;;;;;;;;;;;;;;;;;;4712319;30;32921;-69
2021/12/01 01:45:13;;;;;;;9.43;7.00;;;;;;;;;;4711831;30;32509;-69
2021/12/01 01:47:49;;;;;;;8.40;6.93;;;;;;;;;;4711034;30;34054;-69
2021/12/01 01:50:37;;;;;;;8.18;5.90;;;;;;;;;;4699552;30;32700;-68
2021/12/01 01:53:05;;;;;;;7.38;5.32;;;;;;;;;;4711388;30;32631;-69
2021/12/01 01:55:32;;;;;;;7.50;5.25;;;;;;;;;;4711432;30;32596;-68
2021/12/01 01:57:59;;;;;;;8.80;7.90;;;;;;;;;;4706600;30;32438;-69
2021/12/01 02:00:28;;;;;;;7.90;5.88;;;;;;;;;;4702719;30;33015;-68
2021/12/01 02:02:57;;;;;;;9.35;6.85;;;;;;;;;;4690401;30;32484;-69
2021/12/01 02:05:24;;;;;;;8.43;5.15;;;;;;;;;;4694150;30;32541;-69
2021/12/01 02:07:52;;;;;;;8.13;5.75;;;;;;;;;;4708345;30;32505;-69
2021/12/01 02:10:19;;;;;;;8.45;6.95;;;;;;;;;;4701453;30;34031;-69
2021/12/01 02:12:46;;;;;;;7.28;5.65;;;;;;;;;;4694093;30;32462;-69
2021/12/01 02:15:14;;;;;;;8.25;5.60;;;;;;;;;;4709542;30;32303;-70
2021/12/01 02:17:42;;;;;;;10.10;7.15;;;;;;;;;;4693464;30;32498;-69
2021/12/01 02:20:20;;;;;;;8.35;5.55;;;;;;;;;;4693680;30;32504;-68
2021/12/01 02:22:47;;;;;;;8.18;6.80;;;;;;;;;;4676576;30;33084;-70
2021/12/01 02:25:13;;;;;;;8.90;7.18;;;;;;;;;;4685845;30;32383;-69
2021/12/01 02:27:40;;;;;;;7.70;5.40;;;;;;;;;;4694058;30;32490;-68
2021/12/01 02:30:08;;;;;;;8.80;6.20;;;;;;;;;;4696413;30;32446;-68
2021/12/01 02:32:35;;;;;;;8.35;6.90;;;;;;;;;;4693095;30;32930;-69
2021/12/01 02:35:02;;;;;;;9.80;7.63;;;;;;;;;;4693622;30;32521;-69
2021/12/01 02:37:30;;;;;;;7.45;5.82;;;;;;;;;;4697500;30;32750;-68
2021/12/01 02:39:57;;;;;;;9.45;6.47;;;;;;;;;;4711228;30;32558;-68
2021/12/01 02:42:23;;;;;;;8.93;7.43;;;;;;;;;;4693882;30;32707;-68
2021/12/01 02:44:51;;;;;;;10.75;7.57;;;;;;;;;;4693120;30;33984;-68
2021/12/01 02:47:17;;;;;;;8.75;6.20;;;;;;;;;;4692542;30;32659;-68
2021/12/01 02:49:44;;;;;;;9.40;7.43;;;;;;;;;;4691799;30;32441;-70
2021/12/01 02:52:11;;;;;;;9.60;7.28;;;;;;;;;;4692544;30;32496;-67
2021/12/01 02:54:39;;;;;;;8.73;6.07;;;;;;;;;;4693803;30;33072;-66
2021/12/01 02:57:06;;;;;;;7.57;6.00;;;;;;;;;;4692924;30;32344;-66
2021/12/01 02:59:34;;;;;;;10.93;7.22;;;;;;;;;;4692900;30;32379;-69
2021/12/01 03:02:00;;;;;;;;;;;;;;;;;;4690386;30;32280;-69
2021/12/01 03:04:27;;;;;;;8.80;6.72;;;;;;;;;;4689327;30;32344;-68
2021/12/01 03:06:54;;;;;;;8.60;5.88;;;;;;;;;;4692389;30;32489;-68
2021/12/01 03:09:23;;;;;;;8.25;5.85;;;;;;;;;;4692669;30;32457;-68
2021/12/01 03:11:51;;;;;;;8.70;6.32;;;;;;;;;;4691195;30;32619;-69
2021/12/01 03:14:19;;;;;;;8.13;5.82;;;;;;;;;;4692692;30;32573;-69
2021/12/01 03:16:48;;;;;;;8.38;5.85;;;;;;;;;;4691746;30;34265;-68
2021/12/01 03:19:15;;;;;;;8.60;5.97;;;;;;;;;;4692285;30;32640;-68
2021/12/01 03:21:43;;;;;;;9.27;6.25;;;;;;;;;;4691106;30;32644;-68
2021/12/01 03:24:11;;;;;;;11.18;7.15;;;;;;;;;;4691836;30;32525;-69
2021/12/01 03:26:38;;;;;;;9.52;6.10;;;;;;;;;;4693227;30;33035;-68
2021/12/01 03:29:07;;;;;;;8.55;5.70;;;;;;;;;;4692992;30;34147;-68
2021/12/01 03:31:34;;;;;;;7.72;5.55;;;;;;;;;;4692686;30;32508;-67
2021/12/01 03:34:02;;;;;;;10.15;7.53;;;;;;;;;;4692724;30;32435;-70
2021/12/01 03:36:29;;;;;;;10.90;7.85;;;;;;;;;;4691210;30;32398;-68
2021/12/01 03:38:55;;;;;;;8.55;5.95;;;;;;;;;;4692268;30;33188;-68
2021/12/01 03:41:22;;;;;;;9.60;6.35;;;;;;;;;;4690646;30;32463;-68
2021/12/01 03:43:48;;;;;;;8.00;5.72;;;;;;;;;;4692253;30;32475;-71
2021/12/01 03:46:19;;;;;;;9.95;6.15;;;;;;;;;;4691986;30;32309;-72
2021/12/01 03:48:45;;;;;;;9.20;6.40;;;;;;;;;;4693148;30;32504;-68
2021/12/01 03:51:12;;;;;;;10.15;7.55;;;;;;;;;;4693049;30;34665;-70
2021/12/01 03:53:38;;;;;;;9.10;5.97;;;;;;;;;;4692003;30;32461;-68
2021/12/01 03:56:05;;;;;;;11.95;8.32;;;;;;;;;;4692050;30;32646;-67
2021/12/01 03:58:32;;;;;;;9.15;6.88;;;;;;;;;;4702118;30;32564;-70
2021/12/01 04:00:58;;;;;;;11.48;8.55;;;;;;;;;;4692128;30;33693;-68
2021/12/01 04:03:26;;;;;;;8.85;6.00;;;;;;;;;;4692579;30;32573;-69
2021/12/01 04:05:54;;;;;;;9.27;6.15;;;;;;;;;;4692700;30;32425;-68
2021/12/01 04:08:20;;;;;;;8.38;5.82;;;;;;;;;;4688400;30;32494;-70
2021/12/01 04:10:47;;;;;;;8.02;5.75;;;;;;;;;;4688018;30;32464;-68
2021/12/01 04:13:14;;;;;;;8.55;5.90;;;;;;;;;;4691539;30;33915;-68
2021/12/01 04:15:41;;;;;;;9.38;6.00;;;;;;;;;;4692609;30;32438;-70
2021/12/01 04:18:08;;;;;;;9.20;5.78;;;;;;;;;;4691655;30;32583;-70
2021/12/01 04:20:36;;;;;;;9.48;7.47;;;;;;;;;;4691575;30;32871;-66
2021/12/01 04:23:02;;;;;;;8.75;6.57;;;;;;;;;;4688999;30;32940;-69
2021/12/01 04:25:31;;;;;;;9.10;6.95;;;;;;;;;;4691954;30;32795;-71
2021/12/01 04:27:58;;;;;;;8.02;5.57;;;;;;;;;;4690973;30;32632;-68
2021/12/01 04:30:26;;;;;;;8.75;6.38;;;;;;;;;;4691300;30;32505;-71
2021/12/01 04:32:53;;;;;;;10.75;5.72;;;;;;;;;;4690040;30;32326;-70
2021/12/01 04:35:23;;;;;;;9.50;6.60;;;;;;;;;;4689193;30;34207;-73
2021/12/01 04:37:52;;;;;;;8.52;6.72;;;;;;;;;;4685914;30;32764;-67
2021/12/01 04:40:18;;;;;;;10.00;7.45;;;;;;;;;;4690733;30;32395;-67
2021/12/01 04:42:45;;;;;;;9.45;7.20;;;;;;;;;;4691822;30;32857;-68
2021/12/01 04:45:14;;;;;;;8.48;5.65;;;;;;;;;;4690470;30;33848;-67
2021/12/01 04:47:43;;;;;;;8.48;5.68;;;;;;;;;;4691033;30;32414;-69
2021/12/01 04:50:11;;;;;;;8.68;5.60;;;;;;;;;;4694443;30;32686;-68
2021/12/01 04:52:38;;;;;;;8.57;5.72;;;;;;;;;;4693225;30;32521;-68
2021/12/01 04:55:08;;;;;;;7.20;5.00;;;;;;;;;;4694307;30;33084;-68
2021/12/01 04:57:38;;;;;;;7.25;5.13;;;;;;;;;;4711083;30;32507;-69
2021/12/01 05:00:06;;;;;;;9.38;6.50;;;;;;;;;;4711449;30;32370;-69
2021/12/01 05:02:33;;;;;;;10.05;7.00;;;;;;;;;;4711938;30;32568;-70
2021/12/01 05:04:59;;;;;;;7.72;6.25;;;;;;;;;;4695208;30;32522;-68
2021/12/01 05:07:26;;;;;;;6.88;4.60;;;;;;;;;;4694117;30;32763;-71
2021/12/01 05:09:54;;;;;;;8.02;6.18;;;;;;;;;;4707290;30;32397;-70
2021/12/01 05:12:22;;;;;;;7.30;4.65;;;;;;;;;;4701899;30;32301;-68
2021/12/01 05:14:48;;;;;;;8.13;6.30;;;;;;;;;;4690424;30;32333;-68
2021/12/01 05:17:15;;;;;;;7.45;5.60;;;;;;;;;;4694725;30;32483;-68
2021/12/01 05:19:42;;;;;;;8.60;7.18;;;;;;;;;;4694017;30;32801;-71
2021/12/01 05:22:09;;;;;;;7.70;5.10;;;;;;;;;;4694724;30;32296;-70
2021/12/01 05:24:35;;;;;;;;;;;;;;;;;;4698978;30;32445;-70
2021/12/01 05:27:04;;;;;;;8.52;5.65;;;;;;;;;;4711970;30;32395;-68
2021/12/01 05:29:32;;;;;;;9.23;7.22;;;;;;;;;;4711627;30;32705;-70
2021/12/01 05:31:59;;;;;;;9.00;5.95;;;;;;;;;;4701412;30;32653;-69
2021/12/01 05:34:27;;;;;;;9.70;6.20;;;;;;;;;;4693998;30;32565;-67
2021/12/01 05:37:00;;;;;;;;;;;;;;;;;;4694483;30;32619;-71
2021/12/01 05:39:26;;;;;;;;;;;;;;;;;;4695234;30;32224;-72
2021/12/01 05:41:52;;;;;;;10.38;7.10;;;;;;;;;;4694767;30;32649;-67
2021/12/01 05:44:19;;;;;;;7.95;5.65;;;;;;;;;;4694230;30;32423;-69
2021/12/01 05:46:47;;;;;;;10.48;7.40;;;;;;;;;;4697172;30;32319;-68
2021/12/01 05:49:14;;;;;;;9.13;6.50;;;;;;;;;;4692062;30;32565;-67
2021/12/01 05:51:41;;;;;;;9.02;6.30;;;;;;;;;;4694355;30;32741;-69
2021/12/01 05:54:07;;;;;;;9.75;7.05;;;;;;;;;;4694550;30;32918;-69
2021/12/01 05:56:34;;;;;;;9.65;7.35;;;;;;;;;;4702122;30;32529;-67
2021/12/01 05:59:01;;;;;;;8.82;6.75;;;;;;;;;;4712033;30;32565;-68
2021/12/01 06:01:27;;;;;;;7.75;6.05;;;;;;;;;;4710533;30;32502;-68
2021/12/01 06:03:56;;;;;;;8.48;6.70;;;;;;;;;;4702840;30;32325;-70
2021/12/01 06:06:22;;;;;;;9.10;7.35;;;;;;;;;;4707074;30;32428;-69
2021/12/01 06:08:49;;;;;;;8.88;6.45;;;;;;;;;;4693406;30;32288;-67
2021/12/01 06:11:15;;;;;;;9.30;7.75;;;;;;;;;;4693950;30;32470;-70
2021/12/01 06:13:44;;;;;;;8.05;6.05;;;;;;;;;;4693275;30;32811;-69
2021/12/01 06:16:10;;;;;;;7.68;6.63;;;;;;;;;;4690853;30;32664;-70
2021/12/01 06:18:37;;;;;;;8.32;6.30;;;;;;;;;;4690878;30;33132;-68
2021/12/01 06:21:05;;;;;;;7.43;5.38;;;;;;;;;;4699244;30;32444;-71
2021/12/01 06:23:31;;;;;;;10.10;7.90;;;;;;;;;;4712116;30;32243;-70
2021/12/01 06:25:58;;;;;;;7.78;6.95;;;;;;;;;;4711632;30;32473;-68
2021/12/01 06:28:24;;;;;;;10.63;7.47;;;;;;;;;;4699332;30;32456;-67
2021/12/01 06:30:51;;;;;;;9.57;7.22;;;;;;;;;;4694092;30;32513;-69
2021/12/01 06:33:18;;;;;;;8.45;5.93;;;;;;;;;;4693942;30;32343;-70
2021/12/01 06:35:48;;;;;;;8.20;6.05;;;;;;;;;;4693516;30;33652;-71
2021/12/01 06:38:18;;;;;;;7.97;5.97;;;;;;;;;;4693886;30;32287;-70
2021/12/01 06:40:47;;;;;;;10.45;7.95;;;;;;;;;;4693846;30;32362;-70
2021/12/01 06:43:14;;;;;;;9.73;7.40;;;;;;;;;;4693567;30;32419;-71
2021/12/01 06:45:40;;;;;;;9.43;6.60;;;;;;;;;;4706033;30;32461;-68
2021/12/01 06:48:07;;;;;;;10.38;7.55;;;;;;;;;;4711342;30;32544;-68
2021/12/01 06:50:34;;;;;;;7.78;6.05;;;;;;;;;;4710937;30;32547;-69
2021/12/01 06:53:00;;;;;;;8.60;5.93;;;;;;;;;;4710309;30;32509;-68
2021/12/01 06:55:29;;;;;;;7.97;7.18;;;;;;;;;;4711496;30;32508;-68
2021/12/01 06:57:56;;;;;;;10.43;7.68;;;;;;;;;;4710035;30;32760;-68
2021/12/01 07:00:25;;;;;;;9.35;7.22;;;;;;;;;;4710121;30;32603;-68
2021/12/01 07:02:52;;;;;;;8.57;6.82;;;;;;;;;;4710925;30;32533;-70
2021/12/01 07:05:19;;;;;;;7.07;5.10;;;;;;;;;;4693368;30;32483;-69
2021/12/01 07:07:45;;;;;;;7.60;5.63;;;;;;;;;;4707803;30;32319;-70
2021/12/01 07:10:13;;;;;;;7.82;5.40;;;;;;;;;;4709072;30;32444;-68
2021/12/01 07:12:42;;;;;;;8.35;6.82;;;;;;;;;;4708286;30;32751;-68
2021/12/01 07:15:11;;;;;;;7.78;6.75;;;;;;;;;;4702967;30;32521;-69
2021/12/01 07:17:37;;;;;;;8.13;6.65;;;;;;;;;;4699848;30;33028;-68
2021/12/01 07:20:06;;;;;;;8.75;7.25;;;;;;;;;;4692843;30;33201;-69
2021/12/01 07:22:33;;;;;;;8.65;5.55;;;;;;;;;;4692933;30;32296;-69
2021/12/01 07:25:00;;;;;;;11.07;8.00;;;;;;;;;;4690159;30;32417;-69
2021/12/01 07:27:27;;;;;;;7.70;5.80;;;;;;;;;;4692963;30;32854;-68
2021/12/01 07:29:55;;;;;;;9.30;7.72;;;;;;;;;;4693414;30;32587;-72
2021/12/01 07:32:22;;;;;;;8.30;6.75;;;;;;;;;;4693335;30;32330;-69
2021/12/01 07:34:48;;;;;;;7.20;5.28;;;;;;;;;;4692604;30;32618;-68
2021/12/01 07:37:17;;;;;;;9.68;6.05;;;;;;;;;;4693314;30;32396;-70
2021/12/01 07:39:44;;;;;;;9.00;5.88;;;;;;;;;;4704905;30;32139;-72
2021/12/01 07:42:12;;;;;;;9.07;7.57;;;;;;;;;;4693182;30;32644;-72
2021/12/01 07:44:39;;;;;;;10.30;5.88;;;;;;;;;;4692688;30;32604;-69
2021/12/01 07:47:08;;;;;;;10.27;7.80;;;;;;;;;;4694461;30;32356;-69
2021/12/01 07:49:35;;;;;;;8.60;6.28;;;;;;;;;;4688558;30;32458;-69
2021/12/01 07:52:04;;;;;;;9.60;7.60;;;;;;;;;;4693214;30;34162;-69
2021/12/01 07:54:30;;;;;;;10.68;7.72;;;;;;;;;;4692954;30;32470;-70
2021/12/01 07:56:57;;;;;;;13.25;8.15;;;;;;;;;;4692550;30;32442;-69
2021/12/01 07:59:23;;;;;;;16.67;11.52;;;;;;;;;;4695516;30;32510;-69
2021/12/01 08:01:50;;;;;;;16.30;10.95;;;;;;;;;;4707174;30;32381;-69
2021/12/01 08:04:19;;;;;;;17.92;11.32;;;;;;;;;;4710250;30;33232;-70
2021/12/01 08:06:45;;;;;;;16.13;10.73;;;;;;;;;;4710217;30;32211;-69
2021/12/01 08:09:12;;;;;;;16.48;10.38;;;;;;;;;;4699298;30;32435;-68
2021/12/01 08:11:40;;;;;;;15.23;9.25;;;;;;;;;;4692603;30;32211;-70
2021/12/01 08:14:07;;;;;;;14.25;8.95;;;;;;;;;;4693315;30;33567;-68
2021/12/01 08:16:33;;;;;;;;;;;;;;;;;;4706262;30;32586;-69
2021/12/01 08:19:00;;;;;;;13.63;8.65;;;;;;;;;;4710038;30;32505;-71
2021/12/01 08:21:28;;;;;;;15.48;8.32;;;;;;;;;;4709949;30;32422;-68
2021/12/01 08:23:55;;;;;;;11.27;9.02;;;;;;;;;;4711148;30;32345;-68
2021/12/01 08:26:22;;;;;;;14.07;9.00;;;;;;;;;;4696570;30;32737;-69
2021/12/01 08:28:49;;;;;;;11.05;7.32;;;;;;;;;;4694828;30;33024;-69
2021/12/01 08:31:18;;;;;;;13.32;9.43;;;;;;;;;;4694803;30;32514;-70
2021/12/01 08:33:45;;;;;;;10.27;7.38;;;;;;;;;;4702915;30;32198;-69
2021/12/01 08:36:12;;;;;;;11.65;8.50;;;;;;;;;;4695349;30;33304;-70
2021/12/01 08:38:41;;;;;;;12.43;7.45;;;;;;;;;;4695196;30;32753;-71
2021/12/01 08:41:09;;;;;;;11.30;7.30;;;;;;;;;;4694105;30;33072;-70
2021/12/01 08:43:36;;;;;;;11.90;7.05;;;;;;;;;;4695062;30;32409;-69
2021/12/01 08:46:04;;;;;;;12.65;7.70;;;;;;;;;;4695236;30;32586;-69
2021/12/01 08:48:31;;;;;;;11.60;8.55;;;;;;;;;;4693664;30;33716;-69
2021/12/01 08:51:01;;;;;;;11.52;6.95;;;;;;;;;;4711561;30;32655;-69
2021/12/01 08:53:28;;;;;;;12.57;7.95;;;;;;;;;;4709738;30;32485;-69
2021/12/01 08:55:57;;;;;;;14.70;9.32;;;;;;;;;;4710483;30;32460;-72
2021/12/01 08:58:24;;;;;;;13.60;7.82;;;;;;;;;;4712266;30;33102;-71
2021/12/01 09:00:51;;;;;;;12.35;8.10;;;;;;;;;;4711837;30;32512;-72
2021/12/01 09:03:19;;;;;;;12.70;8.00;;;;;;;;;;4712154;30;32991;-70
2021/12/01 09:05:46;;;;;;;15.27;10.57;;;;;;;;;;4712529;30;32294;-70
2021/12/01 09:08:15;;;;;;;13.80;9.98;;;;;;;;;;4712416;30;32488;-70
2021/12/01 09:10:41;;;;;;;13.75;8.43;;;;;;;;;;4700601;30;33865;-72
2021/12/01 09:13:11;;;;;;;11.98;9.07;;;;;;;;;;4694064;30;32410;-69
2021/12/01 09:15:38;;;;;;;14.77;8.02;;;;;;;;;;4694627;30;33116;-71
2021/12/01 09:18:06;;;;;;;15.02;9.38;;;;;;;;;;4699263;30;32528;-69
2021/12/01 09:20:32;;;;;;;12.75;9.60;;;;;;;;;;4711441;30;32859;-73
2021/12/01 09:23:00;;;;;;;12.50;9.20;;;;;;;;;;4710830;30;32456;-71
2021/12/01 09:25:28;;;;;;;12.75;8.70;;;;;;;;;;4712250;30;32442;-69
2021/12/01 09:27:55;;;;;;;12.57;7.55;;;;;;;;;;4697650;30;32549;-69
2021/12/01 09:30:23;;;;;;;11.95;8.95;;;;;;;;;;4704386;30;32560;-71
2021/12/01 09:32:50;;;;;;;14.10;8.05;;;;;;;;;;4693943;30;33359;-70
2021/12/01 09:35:17;;;;;;;13.18;7.60;;;;;;;;;;4690679;30;32392;-72
2021/12/01 09:37:43;;;;;;;13.55;7.85;;;;;;;;;;4695006;30;32560;-70
2021/12/01 09:40:14;;;;;;;12.95;8.55;;;;;;;;;;4693404;30;32554;-70
2021/12/01 09:42:42;;;;;;;12.75;8.25;;;;;;;;;;4694227;30;33869;-69
2021/12/01 09:45:11;;;;;;;13.45;7.50;;;;;;;;;;4689692;30;35069;-72
2021/12/01 09:47:39;;;;;;;14.02;8.82;;;;;;;;;;4697950;30;32596;-69
2021/12/01 09:50:08;;;;;;;11.98;7.68;;;;;;;;;;4692452;30;32481;-69
2021/12/01 09:52:35;;;;;;;12.02;8.68;;;;;;;;;;4693948;30;32929;-70
2021/12/01 09:55:03;;;;;;;14.13;8.15;;;;;;;;;;4693654;30;33020;-69
2021/12/01 09:57:29;;;;;;;11.82;7.28;;;;;;;;;;4693424;30;32423;-68
2021/12/01 09:59:56;;;;;;;14.82;9.23;;;;;;;;;;4711320;30;32511;-69
2021/12/01 10:02:25;;;;;;;14.27;7.30;;;;;;;;;;4701403;30;32380;-70
2021/12/01 10:04:53;;;;;;;10.48;6.43;;;;;;;;;;4693434;30;32969;-69
2021/12/01 10:07:22;;;;;;;14.18;7.57;;;;;;;;;;4690433;30;32387;-68
2021/12/01 10:09:56;;;;;;;10.88;6.30;;;;;;;;;;4691233;30;32501;-68
2021/12/01 10:12:23;;;;;;;11.20;7.32;;;;;;;;;;4693527;30;32387;-72
2021/12/01 10:14:53;;;;;;;11.55;6.88;;;;;;;;;;4693758;30;32374;-71
2021/12/01 10:17:34;;;;;;;17.17;9.02;;;;;;;;;;4692534;30;33949;-72
2021/12/01 10:20:18;;;;;;;17.27;9.25;;;;;;;;;;4693638;30;32510;-68
2021/12/01 10:23:06;;;;;;;12.73;7.93;;;;;;;;;;4693873;30;32429;-69
2021/12/01 10:25:33;;;;;;;16.80;9.13;;;;;;;;;;4693391;30;32498;-69
2021/12/01 10:28:00;;;;;;;13.50;7.68;;;;;;;;;;4693827;30;34175;-71
2021/12/01 10:30:40;;;;;;;15.13;8.27;;;;;;;;;;4694195;30;32549;-71
2021/12/01 10:33:11;;;;;;;14.02;8.15;;;;;;;;;;4693608;30;32467;-68
2021/12/01 10:35:40;;;;;;;17.55;8.90;;;;;;;;;;4691833;30;32449;-68
2021/12/01 10:38:07;;;;;;;17.10;10.68;;;;;;;;;;4693019;30;32577;-68
2021/12/01 10:40:35;;;;;;;16.33;10.15;;;;;;;;;;4692799;30;33192;-70
2021/12/01 10:43:05;;;;;;;15.77;10.60;;;;;;;;;;4694139;30;32375;-71
2021/12/01 10:45:34;;;;;;;14.68;8.77;;;;;;;;;;4690000;30;32432;-69
2021/12/01 10:48:02;;;;;;;16.77;9.05;;;;;;;;;;4692976;30;32359;-70
2021/12/01 10:50:31;;;;;;;16.17;11.00;;;;;;;;;;4693635;30;33168;-71
2021/12/01 10:53:06;;;;;;;19.50;11.20;;;;;;;;;;4693622;30;32286;-69
2021/12/01 10:55:34;;;;;;;18.92;10.95;;;;;;;;;;4692698;30;32558;-68
2021/12/01 10:58:04;;;;;;;16.67;11.52;;;;;;;;;;4676840;30;32624;-68
2021/12/01 11:00:36;;;;;;;19.00;11.73;;;;;;;;;;4681540;30;32382;-68
2021/12/01 11:03:08;;;;;;;17.17;11.25;;;;;;;;;;4692584;30;32631;-70
2021/12/01 11:05:37;;;;;;;15.13;11.18;;;;;;;;;;4691904;30;32872;-70
2021/12/01 11:08:14;;;;;;;20.33;9.98;;;;;;;;;;4693350;30;32547;-68
2021/12/01 11:10:42;;;;;;;16.08;10.32;;;;;;;;;;4693368;30;32406;-68
2021/12/01 11:13:09;;;;;;;15.70;10.63;;;;;;;;;;4693331;30;33314;-68
2021/12/01 11:15:39;;;;;;;13.23;9.75;;;;;;;;;;4693201;30;32576;-71
2021/12/01 11:18:15;;;;;;;16.25;9.90;;;;;;;;;;4692642;30;32414;-69
2021/12/01 11:20:45;;;;;;;14.50;9.85;;;;;;;;;;4694555;30;32363;-68
2021/12/01 11:23:20;;;;;;;13.52;9.40;;;;;;;;;;4693331;30;32359;-69
2021/12/01 11:25:50;;;;;;;13.45;10.70;;;;;;;;;;4692854;30;33098;-69
2021/12/01 11:28:19;;;;;;;12.23;9.68;;;;;;;;;;4692082;30;32817;-69
2021/12/01 11:30:49;;;;;;;10.93;7.13;;;;;;;;;;4692900;30;32512;-68
2021/12/01 11:33:18;;;;;;;11.45;8.75;;;;;;;;;;4709787;30;32601;-68
2021/12/01 11:35:52;;;;;;;11.82;9.35;;;;;;;;;;4710677;30;33368;-69
2021/12/01 11:38:20;;;;;;;;;;;;;;;;;;4710905;30;32419;-70
2021/12/01 11:40:48;;;;;;;10.93;8.48;;;;;;;;;;4709823;30;32509;-70
2021/12/01 11:43:15;;;;;;;;;;;;;;;;;;4710294;30;32721;-68
2021/12/01 11:45:44;;;;;;;10.80;6.88;;;;;;;;;;4710412;30;32454;-68
2021/12/01 11:48:14;;;;;;;11.70;8.70;;;;;;;;;;4709822;30;32672;-68
2021/12/01 11:50:49;;;;;;;11.25;8.77;;;;;;;;;;4708250;30;32561;-68
2021/12/01 11:53:22;;;;;;;12.05;8.32;;;;;;;;;;4692422;30;32398;-68
2021/12/01 11:56:00;;;;;;;11.30;8.27;;;;;;;;;;4691723;30;32521;-69
2021/12/01 11:58:56;;;;;;;10.93;7.97;;;;;;;;;;4679249;30;32676;-69
2021/12/01 12:01:46;;;;;;;9.75;7.72;;;;;;;;;;4696310;30;32494;-68
2021/12/01 12:04:44;;;;;;;9.80;7.63;;;;;;;;;;4700935;30;32639;-69
2021/12/01 12:07:21;;;;;;;9.40;7.65;;;;;;;;;;4706250;30;32753;-68
2021/12/01 12:10:13;;;;;;;10.05;7.90;;;;;;;;;;4711101;30;32577;-68
2021/12/01 12:13:00;;;;;;;9.32;7.78;;;;;;;;;;4707816;30;33233;-68
2021/12/01 12:15:42;;;;;;;9.52;6.97;;;;;;;;;;4695463;30;32348;-68
2021/12/01 12:18:11;;;;;;;9.48;5.85;;;;;;;;;;4698958;30;32448;-67
2021/12/01 12:21:11;;;;;;;9.52;7.53;;;;;;;;;;4697686;30;32550;-67
2021/12/01 12:23:33;;;;;;;9.00;7.00;;;;;;;;;;4697197;30;33361;-70
2021/12/01 12:26:04;;;;;;;8.38;7.22;;;;;;;;;;4697149;30;32833;-69
2021/12/01 12:28:33;;;;;;;9.02;7.47;;;;;;;;;;4699196;30;32394;-67
2021/12/01 12:31:05;;;;;;;10.52;8.25;;;;;;;;;;4696719;30;32455;-67
2021/12/01 12:33:34;;;;;;;8.32;7.07;;;;;;;;;;4697540;30;31895;-71
2021/12/01 12:36:05;;;;;;;8.75;7.20;;;;;;;;;;4696516;30;33288;-71
2021/12/01 12:38:32;;;;;;;8.13;6.05;;;;;;;;;;4696821;30;32563;-69
2021/12/01 12:41:09;;;;;;;9.93;7.68;;;;;;;;;;4697583;30;32427;-68
2021/12/01 12:43:39;;;;;;;10.60;7.15;;;;;;;;;;4696946;30;32369;-70
2021/12/01 12:46:11;;;;;;;8.32;7.25;;;;;;;;;;4698127;30;34929;-68
2021/12/01 12:48:41;;;;;;;9.50;7.30;;;;;;;;;;4695666;30;32498;-68
2021/12/01 12:51:18;;;;;;;7.78;5.70;;;;;;;;;;4696171;30;32478;-68
2021/12/01 12:54:24;;;;;;;8.85;7.03;;;;;;;;;;4696657;30;32478;-67
2021/12/01 12:56:53;;;;;;;8.30;6.68;;;;;;;;;;4693702;30;32391;-68
2021/12/01 12:59:32;;;;;;;8.38;7.47;;;;;;;;;;4696993;30;33591;-70
2021/12/01 13:02:30;;;;;;;7.70;6.75;;;;;;;;;;4695464;30;33028;-72
2021/12/01 13:04:59;;;;;;;8.70;5.65;;;;;;;;;;4695121;30;32432;-68
2021/12/01 13:07:44;;;;;;;9.40;6.63;;;;;;;;;;4693323;30;32623;-68
2021/12/01 13:10:23;;;;;;;8.45;7.55;;;;;;;;;;4693654;30;33262;-67
2021/12/01 13:12:58;;;;;;;9.57;7.47;;;;;;;;;;4691175;30;32855;-70
2021/12/01 13:15:37;;;;;;;9.25;5.57;;;;;;;;;;4690015;30;32866;-68
2021/12/01 13:18:07;;;;;;;9.55;7.53;;;;;;;;;;4698878;30;32515;-67
2021/12/01 13:20:37;;;;;;;7.97;6.00;;;;;;;;;;4706404;30;32471;-68
2021/12/01 13:23:17;;;;;;;8.35;7.22;;;;;;;;;;4693616;30;34040;-71
2021/12/01 13:26:05;;;;;;;9.15;7.10;;;;;;;;;;4693658;30;32434;-67
2021/12/01 13:28:45;;;;;;;9.38;7.65;;;;;;;;;;4694443;30;32938;-71
2021/12/01 13:31:15;;;;;;;9.15;7.78;;;;;;;;;;4694178;30;32479;-68
2021/12/01 13:34:02;;;;;;;8.75;6.22;;;;;;;;;;4693799;30;32614;-69
2021/12/01 13:36:31;;;;;;;10.07;7.78;;;;;;;;;;4694056;30;32605;-68
2021/12/01 13:39:08;;;;;;;12.90;6.75;;;;;;;;;;4693451;30;32299;-71
2021/12/01 13:41:37;;;;;;;9.60;6.65;;;;;;;;;;4692714;30;32555;-70
2021/12/01 13:44:14;;;;;;;9.18;6.70;;;;;;;;;;4693098;30;32380;-68
2021/12/01 13:46:42;;;;;;;9.82;7.82;;;;;;;;;;4692947;30;34227;-68
2021/12/01 13:49:09;;;;;;;9.43;6.80;;;;;;;;;;4695780;30;32554;-68
2021/12/01 13:51:40;;;;;;;9.60;6.78;;;;;;;;;;4687310;30;32561;-68
2021/12/01 13:54:20;;;;;;;9.52;6.30;;;;;;;;;;4690891;30;32577;-68
2021/12/01 13:56:56;;;;;;;11.05;7.97;;;;;;;;;;4684544;30;33165;-68
2021/12/01 13:59:24;;;;;;;10.35;7.93;;;;;;;;;;4692210;30;32541;-70
2021/12/01 14:01:51;;;;;;;9.88;7.88;;;;;;;;;;4686682;30;32380;-69
2021/12/01 14:04:22;;;;;;;12.18;7.97;;;;;;;;;;4689335;30;32505;-72
2021/12/01 14:06:55;;;;;;;9.90;6.32;;;;;;;;;;4686854;30;32673;-69
2021/12/01 14:09:31;;;;;;;8.55;6.47;;;;;;;;;;4689427;30;33353;-68
2021/12/01 14:12:18;;;;;;;10.80;7.97;;;;;;;;;;4686297;30;32458;-70
2021/12/01 14:14:48;;;;;;;9.20;6.07;;;;;;;;;;4681728;30;32482;-69
2021/12/01 14:17:15;;;;;;;9.90;7.50;;;;;;;;;;4687058;30;32418;-68
2021/12/01 14:19:42;;;;;;;10.30;6.80;;;;;;;;;;4689190;30;32624;-69
2021/12/01 14:22:12;;;;;;;10.88;7.28;;;;;;;;;;4685666;30;32586;-67
2021/12/01 14:24:50;;;;;;;9.93;7.25;;;;;;;;;;4689410;30;32622;-71
2021/12/01 14:27:24;;;;;;;10.00;7.15;;;;;;;;;;4685881;30;32477;-70
2021/12/01 14:29:57;;;;;;;9.07;7.18;;;;;;;;;;4684529;30;32450;-70
2021/12/01 14:32:26;;;;;;;9.00;5.50;;;;;;;;;;4687876;30;34595;-66
2021/12/01 14:34:54;;;;;;;8.00;6.20;;;;;;;;;;4683247;30;32663;-68
2021/12/01 14:37:21;;;;;;;7.82;6.15;;;;;;;;;;4686390;30;32419;-70
2021/12/01 14:39:48;;;;;;;7.65;5.35;;;;;;;;;;4676766;30;32532;-68
2021/12/01 14:42:14;;;;;;;7.82;6.15;;;;;;;;;;4682796;30;33562;-71
2021/12/01 14:44:43;;;;;;;7.55;5.95;;;;;;;;;;4680249;30;32551;-71
2021/12/01 14:47:15;;;;;;;7.97;6.03;;;;;;;;;;4681110;30;32552;-67
2021/12/01 14:49:44;;;;;;;7.20;5.68;;;;;;;;;;4685079;30;32603;-71
2021/12/01 14:52:20;;;;;;;7.10;5.90;;;;;;;;;;4681914;30;32386;-69
2021/12/01 14:55:13;;;;;;;5.38;4.68;;;;;;;;;;4685452;30;32957;-67
2021/12/01 14:57:46;;;;;;;7.00;5.60;;;;;;;;;;4680480;30;32512;-71
2021/12/01 15:00:14;;;;;;;6.38;5.28;;;;;;;;;;4684771;30;32546;-69